createdAt,value
2023-05-24T00:02:02.205Z,13.20
2023-05-24T00:05:59.757Z,12.20
2023-05-24T00:10:02.300Z,11.10
2023-05-24T00:14:06.505Z,12.20
2023-05-24T00:18:10.736Z,12.60
2023-05-24T00:22:15.023Z,12.50
2023-05-24T00:26:19.032Z,12.00
2023-05-24T00:33:59.356Z,11.90
2023-05-24T00:37:52.364Z,12.10
2023-05-24T00:41:39.027Z,12.60
2023-05-24T00:45:36.039Z,11.50
2023-05-24T00:49:29.582Z,13.10
2023-05-24T00:53:33.685Z,10.80
2023-05-24T00:57:20.576Z,9.80
2023-05-24T01:00:29.883Z,10.20
2023-05-24T01:03:16.767Z,9.30
2023-05-24T01:06:16.138Z,9.30
2023-05-24T01:09:39.292Z,9.70
2023-05-24T01:12:47.513Z,9.90
2023-05-24T01:16:07.918Z,9.70
2023-05-24T01:19:43.485Z,10.50
2023-05-24T01:22:47.587Z,10.30
2023-05-24T01:25:53.032Z,11.30
2023-05-24T01:28:47.676Z,11.10
2023-05-24T01:32:04.541Z,11.70
2023-05-24T01:35:01.960Z,11.70
2023-05-24T01:37:54.798Z,13.30
2023-05-24T01:40:47.503Z,12.60
2023-05-24T01:43:45.577Z,11.70
2023-05-24T01:47:03.567Z,13.30
2023-05-24T01:50:18.720Z,12.90
2023-05-24T01:53:31.924Z,13.40
2023-05-24T01:56:36.192Z,13.20
2023-05-24T01:59:58.554Z,12.80
2023-05-24T02:03:10.627Z,11.70
2023-05-24T02:06:26.767Z,11.40
2023-05-24T02:09:31.169Z,11.80
2023-05-24T02:12:22.319Z,11.70
2023-05-24T02:15:35.090Z,12.30
2023-05-24T02:18:35.002Z,11.50
2023-05-24T02:21:57.580Z,11.10
2023-05-24T02:24:54.536Z,11.90
2023-05-24T02:27:47.287Z,12.10
2023-05-24T02:30:43.828Z,10.20
2023-05-24T02:33:33.929Z,11.10
2023-05-24T02:36:48.238Z,9.60
2023-05-24T02:39:45.507Z,10.10
2023-05-24T02:42:29.062Z,9.90
2023-05-24T02:45:14.907Z,10.00
2023-05-24T02:48:21.320Z,9.00
2023-05-24T02:51:13.410Z,9.80
2023-05-24T02:54:15.855Z,9.10
2023-05-24T02:57:06.614Z,8.80
2023-05-24T03:00:20.328Z,7.70
2023-05-24T03:03:30.844Z,7.40
2023-05-24T03:06:29.577Z,7.70
2023-05-24T03:09:45.831Z,7.70
2023-05-24T03:12:43.243Z,7.20
2023-05-24T03:15:49.847Z,7.10
2023-05-24T03:18:38.549Z,6.30
2023-05-24T03:21:44.937Z,6.50
2023-05-24T03:24:31.911Z,6.60
2023-05-24T03:27:27.447Z,6.50
2023-05-24T03:30:23.679Z,6.70
2023-05-24T03:33:26.449Z,6.80
2023-05-24T03:36:21.287Z,7.20
2023-05-24T03:39:18.468Z,6.40
2023-05-24T03:42:42.219Z,6.60
2023-05-24T03:45:39.761Z,6.30
2023-05-24T03:48:32.672Z,6.70
2023-05-24T03:51:29.436Z,5.50
2023-05-24T03:54:19.007Z,5.80
2023-05-24T03:57:14.668Z,5.80
2023-05-24T04:00:01.351Z,5.40
2023-05-24T04:03:11.114Z,5.20
2023-05-24T04:05:58.634Z,5.20
2023-05-24T04:09:09.925Z,6.00
2023-05-24T04:12:13.280Z,4.80
2023-05-24T04:15:16.413Z,5.80
2023-05-24T04:18:11.417Z,6.90
2023-05-24T04:21:05.305Z,8.00
2023-05-24T04:23:56.059Z,8.80
2023-05-24T04:26:58.432Z,9.70
2023-05-24T04:29:49.894Z,8.70
2023-05-24T04:33:02.074Z,9.10
2023-05-24T04:35:52.680Z,8.80
2023-05-24T04:39:03.754Z,9.40
2023-05-24T04:42:00.593Z,8.80
2023-05-24T04:44:46.676Z,8.30
2023-05-24T04:47:40.701Z,9.30
2023-05-24T04:50:46.559Z,9.10
2023-05-24T04:53:33.458Z,9.80
2023-05-24T04:56:42.605Z,9.50
2023-05-24T04:59:31.376Z,9.00
2023-05-24T05:02:27.175Z,8.90
2023-05-24T05:05:46.946Z,8.40
2023-05-24T05:08:53.051Z,8.10
2023-05-24T05:12:00.239Z,8.50
2023-05-24T05:15:03.966Z,8.40
2023-05-24T05:17:55.995Z,8.00
2023-05-24T05:20:47.477Z,7.30
2023-05-24T05:23:55.434Z,7.80
2023-05-24T05:26:53.725Z,7.80
2023-05-24T05:30:00.453Z,7.30
2023-05-24T05:32:46.263Z,6.40
2023-05-24T05:35:41.552Z,6.60
2023-05-24T05:38:44.948Z,7.00
2023-05-24T05:41:45.650Z,7.30
2023-05-24T05:47:43.299Z,6.00
2023-05-24T05:50:38.311Z,7.00
2023-05-24T05:53:38.025Z,6.00
2023-05-24T05:56:41.041Z,6.20
2023-05-24T05:59:36.052Z,5.40
2023-05-24T06:02:44.842Z,6.60
2023-05-24T06:05:42.096Z,6.00
2023-05-24T06:08:41.048Z,5.60
2023-05-24T06:11:30.197Z,5.50
2023-05-24T06:14:25.640Z,4.80
2023-05-24T06:17:09.719Z,5.10
2023-05-24T06:19:53.981Z,4.60
2023-05-24T06:23:00.233Z,4.20
2023-05-24T06:25:52.468Z,4.30
2023-05-24T06:28:59.228Z,4.10
2023-05-24T06:32:01.167Z,3.20
2023-05-24T06:34:46.974Z,3.40
2023-05-24T06:37:53.594Z,2.90
2023-05-24T06:40:50.703Z,2.90
2023-05-24T06:43:46.370Z,3.20
2023-05-24T06:46:35.355Z,2.80
2023-05-24T06:49:34.534Z,2.10
2023-05-24T06:52:41.422Z,2.60
2023-05-24T06:55:27.965Z,2.30
2023-05-24T06:58:24.557Z,2.00
2023-05-24T07:01:51.787Z,2.00
2023-05-24T07:04:35.422Z,1.70
2023-05-24T07:07:33.791Z,2.20
2023-05-24T07:10:28.396Z,2.00
2023-05-24T07:13:30.852Z,1.90
2023-05-24T07:16:27.901Z,1.90
2023-05-24T07:19:14.198Z,1.80
2023-05-24T07:22:09.543Z,2.40
2023-05-24T07:25:05.605Z,2.30
2023-05-24T07:28:01.144Z,2.20
2023-05-24T07:31:05.224Z,1.50
2023-05-24T07:34:24.696Z,1.80
2023-05-24T07:37:13.566Z,2.30
2023-05-24T07:40:22.282Z,2.20
2023-05-24T07:43:12.900Z,2.60
2023-05-24T07:46:18.693Z,2.40
2023-05-24T07:49:18.320Z,2.50
2023-05-24T07:52:06.249Z,2.40
2023-05-24T07:55:13.041Z,2.60
2023-05-24T07:58:22.511Z,2.80
2023-05-24T08:01:14.615Z,2.50
2023-05-24T08:04:18.476Z,2.90
2023-05-24T08:07:27.015Z,3.10
2023-05-24T08:10:14.088Z,2.90
2023-05-24T08:13:10.821Z,3.00
2023-05-24T08:15:59.598Z,2.90
2023-05-24T08:18:46.146Z,2.90
2023-05-24T08:21:35.218Z,3.30
2023-05-24T08:24:35.106Z,3.20
2023-05-24T08:27:28.894Z,3.10
2023-05-24T08:30:40.532Z,3.80
2023-05-24T08:33:56.138Z,3.40
2023-05-24T08:37:16.289Z,4.20
2023-05-24T08:40:09.804Z,4.00
2023-05-24T08:43:02.437Z,4.00
2023-05-24T08:46:07.193Z,4.00
2023-05-24T08:49:12.805Z,4.10
2023-05-24T08:52:01.484Z,4.20
2023-05-24T08:54:56.464Z,4.40
2023-05-24T08:58:08.187Z,4.80
2023-05-24T09:01:07.809Z,4.90
2023-05-24T09:03:55.475Z,4.60
2023-05-24T09:06:47.805Z,5.00
2023-05-24T09:09:50.264Z,4.90
2023-05-24T09:12:38.232Z,4.90
2023-05-24T09:15:34.570Z,5.10
2023-05-24T09:18:23.621Z,4.70
2023-05-24T09:21:13.676Z,4.60
2023-05-24T09:24:22.872Z,4.60
2023-05-24T09:27:09.713Z,4.90
2023-05-24T09:30:14.613Z,5.40
2023-05-24T09:33:02.181Z,4.90
2023-05-24T09:35:51.791Z,5.60
2023-05-24T09:39:03.325Z,4.80
2023-05-24T09:41:57.292Z,6.10
2023-05-24T09:44:51.516Z,6.40
2023-05-24T09:47:45.139Z,5.90
2023-05-24T09:50:31.313Z,6.60
2023-05-24T09:53:22.544Z,5.80
2023-05-24T09:56:10.341Z,5.90
2023-05-24T09:59:10.596Z,6.50
2023-05-24T10:02:38.235Z,6.80
2023-05-24T10:05:37.275Z,6.40
2023-05-24T10:08:24.651Z,7.00
2023-05-24T10:11:13.390Z,7.00
2023-05-24T10:13:59.943Z,6.40
2023-05-24T10:16:43.363Z,6.70
2023-05-24T10:19:29.721Z,6.70
2023-05-24T10:22:32.960Z,8.40
2023-05-24T10:25:35.024Z,6.90
2023-05-24T10:28:31.615Z,7.00
2023-05-24T10:31:44.523Z,6.50
2023-05-24T10:34:41.830Z,7.10
2023-05-24T10:37:37.335Z,6.40
2023-05-24T10:40:25.942Z,7.90
2023-05-24T10:43:11.744Z,6.90
2023-05-24T10:46:08.495Z,7.30
2023-05-24T10:49:13.883Z,8.30
2023-05-24T10:52:07.520Z,7.00
2023-05-24T10:55:18.555Z,6.30
2023-05-24T10:58:06.224Z,6.00
2023-05-24T11:00:52.177Z,7.20
2023-05-24T11:03:38.837Z,7.00
2023-05-24T11:06:45.610Z,6.90
2023-05-24T11:09:32.766Z,7.50
2023-05-24T11:12:18.026Z,6.80
2023-05-24T11:15:04.955Z,6.90
2023-05-24T11:18:24.932Z,7.30
2023-05-24T11:21:09.295Z,7.90
2023-05-24T11:24:03.934Z,7.80
2023-05-24T11:26:59.915Z,6.30
2023-05-24T11:30:04.443Z,7.30
2023-05-24T11:32:51.223Z,8.30
2023-05-24T11:35:40.216Z,7.20
2023-05-24T11:38:36.784Z,6.70
2023-05-24T11:41:23.096Z,7.00
2023-05-24T11:44:11.238Z,6.90
2023-05-24T11:47:04.721Z,7.60
2023-05-24T11:49:59.123Z,6.40
2023-05-24T11:52:42.568Z,7.30
2023-05-24T11:55:41.591Z,6.90
2023-05-24T11:58:47.870Z,7.50
2023-05-24T12:01:31.042Z,6.90
2023-05-24T12:04:19.843Z,7.20
2023-05-24T12:07:14.317Z,6.40
2023-05-24T12:10:00.878Z,7.50
2023-05-24T12:12:46.371Z,7.10
2023-05-24T12:15:32.383Z,8.40
2023-05-24T12:18:28.617Z,7.00
2023-05-24T12:21:15.814Z,7.60
2023-05-24T12:24:31.663Z,6.60
2023-05-24T12:27:26.524Z,6.70
2023-05-24T12:30:18.806Z,7.10
2023-05-24T12:33:02.030Z,7.60
2023-05-24T12:35:51.361Z,7.10
2023-05-24T12:38:35.015Z,7.10
2023-05-24T12:41:21.553Z,8.30
2023-05-24T12:44:04.893Z,6.70
2023-05-24T12:47:08.851Z,7.40
2023-05-24T12:49:52.653Z,7.60
2023-05-24T12:52:39.097Z,6.90
2023-05-24T12:55:42.737Z,8.20
2023-05-24T12:58:48.569Z,6.80
2023-05-24T13:01:50.234Z,7.50
2023-05-24T13:04:45.737Z,6.90
2023-05-24T13:07:50.953Z,7.20
2023-05-24T13:10:57.458Z,6.80
2023-05-24T13:14:12.840Z,7.50
2023-05-24T13:17:17.917Z,7.30
2023-05-24T13:20:51.055Z,6.60
2023-05-24T13:23:52.957Z,7.20
2023-05-24T13:27:03.372Z,7.10
2023-05-24T13:30:05.903Z,8.00
2023-05-24T13:36:17.366Z,8.10
2023-05-24T13:39:22.243Z,7.30
2023-05-24T13:42:34.497Z,8.40
2023-05-24T13:45:37.074Z,8.10
2023-05-24T13:48:29.537Z,7.00
2023-05-24T13:51:44.040Z,8.00
2023-05-24T13:55:20.506Z,7.80
2023-05-24T13:58:23.989Z,9.10
2023-05-24T14:01:50.780Z,7.50
2023-05-24T14:05:27.949Z,7.40
2023-05-24T14:08:43.693Z,8.00
2023-05-24T14:12:02.938Z,7.70
2023-05-24T14:15:35.460Z,7.40
2023-05-24T14:18:27.776Z,7.20
2023-05-24T14:21:45.764Z,8.50
2023-05-24T14:25:00.342Z,6.70
2023-05-24T14:28:09.681Z,7.10
2023-05-24T14:31:25.897Z,7.20
2023-05-24T14:34:35.391Z,7.10
2023-05-24T14:37:40.649Z,8.30
2023-05-24T14:40:51.037Z,7.70
2023-05-24T14:44:14.596Z,7.40
2023-05-24T14:47:30.044Z,7.90
2023-05-24T14:50:21.819Z,8.00
2023-05-24T14:53:36.546Z,8.40
2023-05-24T14:56:42.155Z,7.80
2023-05-24T14:59:48.615Z,8.20
2023-05-24T15:02:34.250Z,8.40
2023-05-24T15:05:27.844Z,7.80
2023-05-24T15:08:56.307Z,7.30
2023-05-24T15:12:01.363Z,7.30
2023-05-24T15:15:07.866Z,7.20
2023-05-24T15:18:00.752Z,8.00
2023-05-24T15:21:06.999Z,6.40
2023-05-24T15:24:39.284Z,7.80
2023-05-24T15:27:54.012Z,7.20
2023-05-24T15:31:10.273Z,8.00
2023-05-24T15:34:16.816Z,8.20
2023-05-24T15:37:32.965Z,7.80
2023-05-24T15:40:42.111Z,7.80
2023-05-24T15:44:08.718Z,7.00
2023-05-24T15:47:02.662Z,8.20
2023-05-24T15:49:55.202Z,7.00
2023-05-24T15:53:18.714Z,7.30
2023-05-24T15:56:24.379Z,7.60
2023-05-24T15:59:40.899Z,7.10
2023-05-24T16:02:47.451Z,8.00
2023-05-24T16:06:00.752Z,8.50
2023-05-24T16:09:05.426Z,7.90
2023-05-24T16:12:02.908Z,7.30
2023-05-24T16:14:57.751Z,6.90
2023-05-24T16:17:58.836Z,7.20
2023-05-24T16:21:11.449Z,7.50
2023-05-24T16:24:08.054Z,7.70
2023-05-24T16:27:10.100Z,8.40
2023-05-24T16:29:54.004Z,7.90
2023-05-24T16:33:03.025Z,7.80
2023-05-24T16:35:55.290Z,8.10
2023-05-24T16:38:52.253Z,7.70
2023-05-24T16:41:47.720Z,7.90
2023-05-24T16:44:36.260Z,8.00
2023-05-24T16:47:22.905Z,8.50
2023-05-24T16:50:15.100Z,8.20
2023-05-24T16:53:11.066Z,9.20
2023-05-24T16:55:58.351Z,11.00
2023-05-24T16:58:51.367Z,9.00
2023-05-24T17:01:45.166Z,8.30
2023-05-24T17:04:47.755Z,8.20
2023-05-24T17:07:36.583Z,8.20
2023-05-24T17:10:25.491Z,7.60
2023-05-24T17:13:32.908Z,7.00
2023-05-24T17:16:28.168Z,7.70
2023-05-24T17:19:21.041Z,7.80
2023-05-24T17:25:07.339Z,7.50
2023-05-24T17:28:06.128Z,7.20
2023-05-24T17:30:59.631Z,7.60
2023-05-24T17:33:59.879Z,9.50
2023-05-24T17:36:56.779Z,7.50
2023-05-24T17:39:52.503Z,8.10
2023-05-24T17:42:44.015Z,7.50
2023-05-24T17:45:44.933Z,8.60
2023-05-24T17:48:47.945Z,7.50
2023-05-24T17:51:41.142Z,9.50
2023-05-24T17:54:33.414Z,9.60
2023-05-24T17:57:29.836Z,9.20
2023-05-24T18:00:19.639Z,13.60
2023-05-24T18:03:17.390Z,9.30
2023-05-24T18:06:36.980Z,8.30
2023-05-24T18:09:34.568Z,8.80
2023-05-24T18:12:23.723Z,11.70
2023-05-24T18:15:38.171Z,10.30
2023-05-24T18:18:30.674Z,8.40
2023-05-24T18:21:25.567Z,8.70
2023-05-24T18:24:27.720Z,8.50
2023-05-24T18:27:28.415Z,8.30
2023-05-24T18:30:32.011Z,7.90
2023-05-24T18:33:35.794Z,8.30
2023-05-24T18:36:27.675Z,8.80
2023-05-24T18:42:03.494Z,7.40
2023-05-24T18:44:52.948Z,8.70
2023-05-24T18:47:59.197Z,7.40
2023-05-24T18:50:50.808Z,9.00
2023-05-24T18:53:45.314Z,11.60
2023-05-24T18:56:56.983Z,8.70
2023-05-24T19:00:44.188Z,8.10
2023-05-24T19:03:33.634Z,8.90
2023-05-24T19:06:39.664Z,9.10
2023-05-24T19:10:06.042Z,8.80
2023-05-24T19:13:28.189Z,8.90
2023-05-24T19:16:58.632Z,9.00
2023-05-24T19:20:24.485Z,8.50
2023-05-24T19:23:13.499Z,8.80
2023-05-24T19:26:05.832Z,9.40
2023-05-24T19:29:11.942Z,9.50
2023-05-24T19:32:11.651Z,9.70
2023-05-24T19:35:11.107Z,9.90
2023-05-24T19:38:05.171Z,9.50
2023-05-24T19:40:57.372Z,8.90
2023-05-24T19:44:03.367Z,10.00
2023-05-24T19:46:49.718Z,10.10
2023-05-24T19:49:44.327Z,10.20
2023-05-24T19:52:30.853Z,11.50
2023-05-24T19:55:22.570Z,10.40
2023-05-24T19:58:26.986Z,9.90
2023-05-24T20:01:15.026Z,9.70
2023-05-24T20:04:06.241Z,10.50
2023-05-24T20:07:23.716Z,9.90
2023-05-24T20:10:27.508Z,9.50
2023-05-24T20:13:17.000Z,10.70
2023-05-24T20:16:16.630Z,10.30
2023-05-24T20:19:08.996Z,9.40
2023-05-24T20:22:24.830Z,10.10
2023-05-24T20:25:30.079Z,9.30
2023-05-24T20:28:50.065Z,9.20
2023-05-24T20:31:47.431Z,9.90
2023-05-24T20:35:03.161Z,9.90
2023-05-24T20:37:48.831Z,9.20
2023-05-24T20:41:03.503Z,9.40
2023-05-24T20:44:16.733Z,9.40
2023-05-24T20:47:27.552Z,8.70
2023-05-24T20:50:27.897Z,9.50
2023-05-24T20:53:19.916Z,9.50
2023-05-24T20:56:29.476Z,9.30
2023-05-24T20:59:20.937Z,9.10
2023-05-24T21:02:18.819Z,8.50
2023-05-24T21:05:08.243Z,9.10
2023-05-24T21:08:10.713Z,8.30
2023-05-24T21:11:29.601Z,8.90
2023-05-24T21:14:25.596Z,9.30
2023-05-24T21:17:22.071Z,8.80
2023-05-24T21:20:10.078Z,8.30
2023-05-24T21:23:05.287Z,9.40
2023-05-24T21:26:12.397Z,10.00
2023-05-24T21:29:22.183Z,9.40
2023-05-24T21:32:31.320Z,8.10
2023-05-24T21:35:40.206Z,9.20
2023-05-24T21:38:57.042Z,9.40
2023-05-24T21:42:10.544Z,8.50
2023-05-24T21:45:12.232Z,8.50
2023-05-24T21:48:01.644Z,8.60
2023-05-24T21:51:19.062Z,8.80
2023-05-24T21:54:19.925Z,8.40
2023-05-24T22:00:28.617Z,8.80
2023-05-24T22:03:54.248Z,8.50
2023-05-24T22:06:49.727Z,9.00
2023-05-24T22:09:56.711Z,8.40
2023-05-24T22:13:31.392Z,8.70
2023-05-24T22:16:43.922Z,8.50
2023-05-24T22:20:07.721Z,9.10
2023-05-24T22:23:22.212Z,8.80
2023-05-24T22:26:17.212Z,8.50
2023-05-24T22:29:26.766Z,9.70
2023-05-24T22:32:55.883Z,9.10
2023-05-24T22:36:13.214Z,9.40
2023-05-24T22:39:25.567Z,9.70
2023-05-24T22:42:42.240Z,9.90
2023-05-24T22:45:33.546Z,10.20
2023-05-24T22:48:52.862Z,9.40
2023-05-24T22:51:48.953Z,9.60
2023-05-24T22:54:47.497Z,10.20
2023-05-24T22:58:07.892Z,9.70
2023-05-24T23:01:22.607Z,10.10
2023-05-24T23:04:47.870Z,9.50
2023-05-24T23:07:58.348Z,9.30
2023-05-24T23:11:17.259Z,10.50
2023-05-24T23:14:39.955Z,10.70
2023-05-24T23:17:41.949Z,10.00
2023-05-24T23:20:42.049Z,11.20
2023-05-24T23:23:34.322Z,9.80
2023-05-24T23:26:26.931Z,9.60
2023-05-24T23:29:19.699Z,9.20
2023-05-24T23:32:33.448Z,10.20
2023-05-24T23:35:34.247Z,9.50
2023-05-24T23:38:40.484Z,10.50
2023-05-24T23:41:49.228Z,9.40
2023-05-24T23:44:55.530Z,10.50
2023-05-24T23:48:16.368Z,9.80
2023-05-24T23:51:19.512Z,10.60
2023-05-24T23:54:16.480Z,11.10
2023-05-24T23:57:52.250Z,10.00
